Time;durP1;ratioP1;P1;durP2;ratioP2;P2;SDS_P1;SDS_P2;PMS_P1;PMS_P2;Temp;Humidity;BMP_temperature;BMP_pressure;BME280_temperature;BME280_humidity;BME280_pressure;Samples;Min_cycle;Max_cycle;Signal;HPM_P1;HPM_P2
2023/02/15 00:00:44;;;;;;;12.20;8.25;;;19.30;61.50;;;;;;10487315;28;20480;-26
2023/02/15 00:05:48;;;;;;;14.52;7.05;;;19.30;61.50;;;;;;10488948;28;20421;-29
2023/02/15 00:10:50;;;;;;;13.05;7.18;;;19.30;61.60;;;;;;10481817;28;20558;-31
2023/02/15 00:15:51;;;;;;;12.48;6.95;;;19.20;61.40;;;;;;10481960;28;20558;-28
2023/02/15 00:20:55;;;;;;;12.38;7.05;;;19.20;61.40;;;;;;10487578;28;20146;-26
2023/02/15 00:26:05;;;;;;;16.55;7.18;;;19.20;61.40;;;;;;10488361;28;20039;-26
2023/02/15 00:31:08;;;;;;;11.00;7.13;;;19.20;61.40;;;;;;10484080;28;20509;-27
2023/02/15 00:36:12;;;;;;;13.15;7.07;;;19.20;61.40;;;;;;10486353;28;20056;-27
2023/02/15 00:41:14;;;;;;;10.07;7.28;;;19.10;61.40;;;;;;10486671;28;20066;-27
2023/02/15 00:46:16;;;;;;;10.75;6.10;;;19.10;61.20;;;;;;10486566;28;20041;-27
2023/02/15 00:51:20;;;;;;;13.77;7.47;;;19.10;61.40;;;;;;10487718;28;20469;-27
2023/02/15 00:56:22;;;;;;;10.77;7.00;;;19.10;61.30;;;;;;10486493;28;20048;-26
2023/02/15 01:01:25;;;;;;;12.57;7.90;;;19.00;61.30;;;;;;10487960;28;20055;-29
2023/02/15 01:06:28;;;;;;;10.88;7.05;;;19.00;61.40;;;;;;10484952;28;20040;-28
2023/02/15 01:11:30;;;;;;;11.23;7.18;;;19.00;61.80;;;;;;10485071;28;20146;-26
2023/02/15 01:16:32;;;;;;;11.48;7.45;;;18.90;61.10;;;;;;10485538;28;20475;-25
2023/02/15 01:21:36;;;;;;;9.98;6.43;;;19.00;61.40;;;;;;10488860;28;20044;-27
2023/02/15 01:26:37;;;;;;;11.07;6.88;;;18.90;61.20;;;;;;10486199;28;20708;-25
2023/02/15 01:31:39;;;;;;;10.85;7.00;;;18.90;61.20;;;;;;10485942;28;20048;-25
2023/02/15 01:36:43;;;;;;;14.63;7.32;;;18.80;61.20;;;;;;10486467;28;20114;-26
2023/02/15 01:41:44;;;;;;;9.57;6.75;;;18.90;61.30;;;;;;10484570;28;20041;-24
2023/02/15 01:46:52;;;;;;;8.82;6.50;;;18.80;61.20;;;;;;10485700;28;20053;-30
2023/02/15 01:51:55;;;;;;;13.65;7.20;;;18.80;61.10;;;;;;10484931;28;20062;-26
2023/02/15 01:57:01;;;;;;;12.80;7.13;;;18.80;61.10;;;;;;10484604;28;20057;-28
2023/02/15 02:02:05;;;;;;;13.48;7.20;;;18.80;61.00;;;;;;10485186;28;20214;-24
2023/02/15 02:07:10;;;;;;;11.68;7.38;;;18.80;61.00;;;;;;10475786;28;20057;-28
2023/02/15 02:12:12;;;;;;;9.57;6.97;;;18.80;60.90;;;;;;10479513;28;20052;-28
2023/02/15 02:17:17;;;;;;;;;;;18.70;61.00;;;;;;10482828;28;20111;-30
2023/02/15 02:22:56;;;;;;;10.32;6.68;;;18.70;61.00;;;;;;10482940;28;20024;-27
2023/02/15 02:28:15;;;;;;;9.85;6.00;;;18.70;61.00;;;;;;10479257;28;20675;-26
2023/02/15 02:33:35;;;;;;;12.15;6.45;;;18.70;60.90;;;;;;10479235;28;20044;-27
2023/02/15 02:38:48;;;;;;;8.43;6.35;;;18.70;61.00;;;;;;10480727;28;20094;-31
2023/02/15 02:43:53;;;;;;;9.93;6.50;;;18.60;61.00;;;;;;10483970;28;20706;-29
2023/02/15 02:48:58;;;;;;;10.55;6.57;;;18.60;61.00;;;;;;10480713;28;20139;-26
2023/02/15 02:54:03;;;;;;;9.70;6.43;;;18.60;61.00;;;;;;10481420;28;20045;-26
2023/02/15 02:59:11;;;;;;;11.85;6.63;;;18.60;60.90;;;;;;10483066;28;20060;-27
2023/02/15 03:04:17;;;;;;;9.63;6.43;;;18.60;60.90;;;;;;10483075;28;20041;-25
2023/02/15 03:09:34;;;;;;;9.77;7.05;;;18.60;61.00;;;;;;10482899;28;20148;-26
2023/02/15 03:14:37;;;;;;;9.35;6.80;;;18.50;60.90;;;;;;10479266;28;20593;-27
2023/02/15 03:19:41;;;;;;;14.32;7.28;;;18.50;60.90;;;;;;10481666;28;20051;-27
2023/02/15 03:24:47;;;;;;;8.50;6.15;;;18.50;60.70;;;;;;10481854;28;20059;-30
2023/02/15 03:29:53;;;;;;;8.68;6.30;;;18.50;60.80;;;;;;10487133;28;20048;-27
2023/02/15 03:34:57;;;;;;;10.73;6.35;;;18.50;60.80;;;;;;10490253;28;20098;-24
2023/02/15 03:41:09;;;;;;;11.38;6.47;;;18.40;60.80;;;;;;10490605;28;20140;-29
2023/02/15 03:45:30;;;;;;;8.05;5.93;;;18.40;60.70;;;;;;10490841;28;20044;-25
2023/02/15 03:55:56;;;;;;;8.60;6.80;;;18.40;60.60;;;;;;10488377;28;20064;-28
2023/02/15 04:06:23;;;;;;;9.85;5.97;;;18.40;60.60;;;;;;10484360;28;20037;-28
2023/02/15 04:11:25;;;;;;;10.63;6.70;;;18.40;60.60;;;;;;10488693;28;20079;-27
2023/02/15 04:16:29;;;;;;;9.23;5.97;;;18.40;60.40;;;;;;10488313;28;20072;-26
2023/02/15 04:26:53;;;;;;;9.70;6.75;;;18.30;60.40;;;;;;10489786;28;20052;-27
2023/02/15 04:31:56;;;;;;;9.45;6.43;;;18.30;60.50;;;;;;10488584;28;20404;-26
2023/02/15 04:37:00;;;;;;;8.55;5.47;;;18.30;60.40;;;;;;10488784;28;20507;-27
2023/02/15 04:42:02;;;;;;;10.18;5.93;;;18.30;60.50;;;;;;10488430;28;20059;-26
2023/02/15 04:47:04;;;;;;;9.18;6.10;;;18.20;60.30;;;;;;10486877;28;20048;-30
2023/02/15 04:52:07;;;;;;;10.35;5.93;;;18.20;60.40;;;;;;10486595;28;20086;-25
2023/02/15 04:57:09;;;;;;;8.73;5.88;;;18.20;60.30;;;;;;10485037;28;20056;-25
2023/02/15 05:02:11;;;;;;;9.82;7.05;;;18.20;60.10;;;;;;10486271;28;20044;-26
2023/02/15 05:07:15;;;;;;;8.73;6.28;;;18.30;60.00;;;;;;10487350;28;20506;-28
2023/02/15 05:12:17;;;;;;;11.18;6.60;;;18.50;59.70;;;;;;10488722;28;20472;-25
2023/02/15 05:17:18;;;;;;;9.27;6.38;;;18.60;59.30;;;;;;10484741;28;20175;-29
2023/02/15 05:22:22;;;;;;;7.93;6.00;;;18.70;59.10;;;;;;10485782;28;20040;-29
2023/02/15 05:32:43;;;;;;;9.88;6.00;;;18.80;58.90;;;;;;10483954;28;20044;-26
2023/02/15 05:37:46;;;;;;;9.20;5.90;;;18.80;58.90;;;;;;10485008;28;20075;-26
2023/02/15 05:42:48;;;;;;;8.00;5.50;;;18.80;58.80;;;;;;10481906;28;20500;-27
2023/02/15 05:47:50;;;;;;;8.63;5.30;;;18.80;58.80;;;;;;10480754;28;20053;-25
2023/02/15 05:52:53;;;;;;;7.97;5.75;;;18.80;58.70;;;;;;10479211;28;20056;-26
2023/02/15 05:57:55;;;;;;;9.45;6.00;;;18.80;58.70;;;;;;10480018;28;20134;-26
2023/02/15 06:02:57;;;;;;;7.78;6.05;;;18.80;58.70;;;;;;10480571;28;20040;-27
2023/02/15 06:08:00;;;;;;;5.90;4.93;;;18.80;59.20;;;;;;10480597;28;20053;-26
2023/02/15 06:13:02;;;;;;;8.38;5.55;;;18.80;58.50;;;;;;10481122;28;20064;-28
2023/02/15 06:18:04;;;;;;;7.25;5.00;;;18.90;58.60;;;;;;10481501;28;20131;-27
2023/02/15 06:23:07;;;;;;;9.73;5.80;;;18.90;58.50;;;;;;10480329;28;20094;-27
2023/02/15 06:28:09;;;;;;;7.05;5.22;;;18.90;58.40;;;;;;10479381;28;20064;-26
2023/02/15 06:33:11;;;;;;;7.20;5.40;;;18.90;58.50;;;;;;10478980;28;20455;-25
2023/02/15 06:38:14;;;;;;;9.10;5.57;;;18.90;58.50;;;;;;10480726;28;20664;-30
2023/02/15 06:43:16;;;;;;;8.40;4.75;;;18.90;58.50;;;;;;10470125;28;20374;-28
2023/02/15 06:48:18;;;;;;;9.70;6.10;;;18.90;58.40;;;;;;10474358;28;20880;-24
2023/02/15 06:53:21;;;;;;;8.30;5.65;;;18.90;58.40;;;;;;10476488;28;20119;-26
2023/02/15 06:58:23;;;;;;;10.25;5.35;;;18.90;58.40;;;;;;10475620;28;20135;-28
2023/02/15 07:15:26;;;;;;;12.27;5.32;;;18.90;57.80;;;;;;10599940;27;20509;-26
2023/02/15 07:20:29;;;;;;;12.32;5.35;;;18.80;58.40;;;;;;10627577;27;20092;-26
2023/02/15 07:25:31;;;;;;;7.75;5.13;;;18.80;58.30;;;;;;10630267;27;20139;-24
2023/02/15 07:30:35;;;;;;;8.30;5.43;;;18.80;58.20;;;;;;10625850;27;20035;-27
2023/02/15 07:35:37;;;;;;;8.45;5.45;;;18.80;58.10;;;;;;10629225;27;20507;-25
2023/02/15 07:40:39;;;;;;;10.65;5.45;;;18.80;58.10;;;;;;10631466;27;20091;-25
2023/02/15 07:45:42;;;;;;;8.88;5.32;;;18.80;58.20;;;;;;10628702;27;20049;-25
2023/02/15 07:50:44;;;;;;;7.60;5.80;;;18.70;58.20;;;;;;10627440;27;20078;-25
2023/02/15 07:55:46;;;;;;;9.00;5.63;;;18.70;58.30;;;;;;10616820;27;20049;-26
2023/02/15 08:00:58;;;;;;;9.93;5.18;;;18.60;58.40;;;;;;10628011;27;20043;-25
2023/02/15 08:06:00;;;;;;;9.32;6.05;;;18.60;58.50;;;;;;10629678;27;20150;-28
2023/02/15 08:16:25;;;;;;;6.82;4.68;;;18.50;58.70;;;;;;10627487;27;20039;-27
2023/02/15 08:21:29;;;;;;;8.70;5.40;;;18.50;59.20;;;;;;10626571;27;20436;-25
2023/02/15 08:26:31;;;;;;;7.53;5.05;;;18.40;59.60;;;;;;10599211;27;20564;-26
2023/02/15 08:31:37;;;;;;;;;;;18.40;59.70;;;;;;10602853;27;20126;-25
2023/02/15 08:36:38;;;;;;;7.70;4.40;;;18.40;59.80;;;;;;10599506;27;19927;-23
2023/02/15 08:41:43;;;;;;;7.03;5.13;;;18.40;59.60;;;;;;10599025;27;20139;-27
2023/02/15 08:46:48;;;;;;;7.50;4.70;;;18.40;59.50;;;;;;10593981;27;20190;-26
2023/02/15 08:51:50;;;;;;;8.02;5.35;;;18.40;59.30;;;;;;10600197;27;20152;-25
2023/02/15 08:56:52;;;;;;;12.23;5.00;;;18.40;59.40;;;;;;10598473;27;20074;-27
2023/02/15 09:01:56;;;;;;;6.97;4.75;;;18.40;59.40;;;;;;10597636;27;20163;-27
2023/02/15 09:06:58;;;;;;;11.68;5.05;;;18.40;59.40;;;;;;10600008;27;20058;-26
2023/02/15 09:12:00;;;;;;;8.38;5.32;;;18.40;59.50;;;;;;10596205;27;20043;-26
2023/02/15 09:17:03;;;;;;;7.72;4.95;;;18.40;59.70;;;;;;10596211;27;20077;-25
2023/02/15 09:22:05;;;;;;;8.32;5.38;;;18.40;59.40;;;;;;10598813;27;20054;-30
2023/02/15 09:27:07;;;;;;;8.02;5.55;;;18.40;59.40;;;;;;10599140;27;20047;-25
2023/02/15 09:32:15;;;;;;;7.68;5.35;;;18.40;59.30;;;;;;10593176;27;20138;-26
2023/02/15 09:37:17;;;;;;;7.90;5.13;;;18.40;59.20;;;;;;10596921;27;20039;-25
2023/02/15 09:42:48;;;;;;;9.48;5.90;;;18.40;59.30;;;;;;10594387;27;20618;-25
2023/02/15 09:48:27;;;;;;;7.95;5.60;;;18.40;59.30;;;;;;10595604;27;20062;-24
2023/02/15 09:53:44;;;;;;;9.77;6.47;;;18.40;59.20;;;;;;10588191;27;20047;-29
2023/02/15 09:58:53;;;;;;;8.63;5.80;;;18.50;59.30;;;;;;10598464;27;20051;-25
2023/02/15 10:04:08;;;;;;;11.88;6.28;;;18.50;59.50;;;;;;10598250;27;20058;-26
2023/02/15 10:09:23;;;;;;;9.50;5.88;;;18.40;59.80;;;;;;10597126;27;20043;-23
2023/02/15 10:14:41;;;;;;;8.65;6.10;;;18.20;60.90;;;;;;10595929;27;20058;-25
2023/02/15 10:19:57;;;;;;;9.25;6.07;;;18.30;60.60;;;;;;10593056;27;20075;-28
2023/02/15 10:25:20;;;;;;;9.52;6.20;;;18.30;60.60;;;;;;10590552;27;20050;-26
2023/02/15 10:30:33;;;;;;;10.95;6.18;;;18.40;60.60;;;;;;10595667;27;20070;-26
2023/02/15 10:35:43;;;;;;;8.50;5.93;;;18.40;60.70;;;;;;10595248;27;20134;-26
2023/02/15 10:40:59;;;;;;;15.70;6.88;;;18.50;60.60;;;;;;10589812;27;20146;-26
2023/02/15 10:46:07;;;;;;;11.70;6.82;;;18.50;60.50;;;;;;10598566;27;20060;-29
2023/02/15 10:51:19;;;;;;;13.15;6.55;;;18.40;60.60;;;;;;10591065;27;20039;-26
2023/02/15 10:56:28;;;;;;;15.00;6.27;;;18.40;60.60;;;;;;10595666;27;20075;-27
2023/02/15 11:01:35;;;;;;;11.25;6.63;;;18.40;60.70;;;;;;10594514;27;20043;-28
2023/02/15 11:06:42;;;;;;;21.10;13.35;;;18.50;60.60;;;;;;10589443;27;20043;-26
2023/02/15 11:11:48;;;;;;;10.52;6.63;;;18.40;60.50;;;;;;10596515;28;20613;-26
2023/02/15 11:16:53;;;;;;;10.90;6.57;;;18.40;60.80;;;;;;10594446;27;20047;-26
2023/02/15 11:22:00;;;;;;;11.00;6.50;;;18.40;60.80;;;;;;10596379;27;20140;-27
2023/02/15 11:27:06;;;;;;;23.73;11.52;;;18.40;61.20;;;;;;10595351;28;20548;-26
2023/02/15 11:32:19;;;;;;;11.45;7.00;;;18.00;57.10;;;;;;10590812;28;20399;-24
2023/02/15 11:37:29;;;;;;;10.65;7.28;;;18.10;62.00;;;;;;10594849;28;20224;-27
2023/02/15 11:42:33;;;;;;;16.33;7.30;;;18.20;61.70;;;;;;10594032;27;20039;-29
2023/02/15 11:47:35;;;;;;;19.88;11.15;;;18.30;61.40;;;;;;10593688;27;20050;-27
2023/02/15 11:52:38;;;;;;;21.10;12.68;;;17.30;65.90;;;;;;10596324;28;20047;-27
2023/02/15 11:57:44;;;;;;;12.18;7.47;;;16.60;68.70;;;;;;10595636;27;20108;-26
2023/02/15 12:02:53;;;;;;;14.00;8.00;;;18.00;63.10;;;;;;10601605;27;20137;-25
2023/02/15 12:08:03;;;;;;;31.50;16.02;;;17.40;66.40;;;;;;10589457;27;20078;-26
2023/02/15 12:13:13;;;;;;;40.47;20.67;;;17.00;61.50;;;;;;10581710;27;20385;-27
2023/02/15 12:18:34;;;;;;;20.58;11.15;;;16.40;69.50;;;;;;10583984;27;20118;-28
2023/02/15 12:23:47;;;;;;;13.95;8.68;;;17.10;67.40;;;;;;10582129;27;20047;-28
2023/02/15 12:28:53;;;;;;;14.00;8.13;;;17.40;66.00;;;;;;10585236;27;20555;-26
2023/02/15 12:33:57;;;;;;;16.77;8.95;;;18.10;62.80;;;;;;10589695;27;20050;-26
2023/02/15 12:39:19;;;;;;;13.07;7.40;;;18.20;61.80;;;;;;10586341;27;20043;-29
2023/02/15 12:44:25;;;;;;;15.63;9.25;;;18.40;61.40;;;;;;10589446;27;20171;-26
2023/02/15 12:49:27;;;;;;;15.65;8.70;;;18.20;61.70;;;;;;10585169;27;20405;-26
2023/02/15 12:54:40;;;;;;;12.85;7.18;;;18.40;61.10;;;;;;10589497;27;20043;-26
2023/02/15 12:59:49;;;;;;;10.75;7.10;;;18.40;59.50;;;;;;10586194;27;20052;-26
2023/02/15 13:04:52;;;;;;;27.45;15.55;;;18.30;59.10;;;;;;10583456;27;20106;-27
2023/02/15 13:09:55;;;;;;;11.90;7.32;;;17.40;64.60;;;;;;10584373;27;20503;-25
2023/02/15 13:14:59;;;;;;;11.57;7.32;;;18.00;62.60;;;;;;10586240;27;20051;-26
2023/02/15 13:20:04;;;;;;;12.25;7.05;;;18.50;61.20;;;;;;10579014;27;20534;-28
2023/02/15 13:25:15;;;;;;;55.33;28.00;;;18.50;61.20;;;;;;10581319;27;20050;-26
2023/02/15 13:30:36;;;;;;;36.58;20.67;;;17.80;58.30;;;;;;10579745;27;20058;-26
2023/02/15 13:35:43;;;;;;;13.85;7.45;;;17.60;62.10;;;;;;10582570;27;20054;-25
2023/02/15 13:40:54;;;;;;;40.83;22.23;;;18.40;61.30;;;;;;10589871;27;20108;-27
2023/02/15 13:46:19;;;;;;;26.60;15.82;;;18.10;59.00;;;;;;10566285;27;20135;-25
2023/02/15 13:51:27;;;;;;;35.75;19.23;;;17.10;60.70;;;;;;10564598;28;20138;-27
2023/02/15 13:56:40;;;;;;;52.05;23.60;;;17.40;64.40;;;;;;10563303;27;20087;-26
2023/02/15 14:01:46;;;;;;;21.80;11.75;;;18.10;58.70;;;;;;10563773;28;20058;-26
2023/02/15 14:07:07;;;;;;;47.25;25.00;;;17.90;61.40;;;;;;10564477;27;20052;-24
2023/02/15 14:12:35;;;;;;;29.75;14.45;;;17.60;59.10;;;;;;10563784;27;20043;-27
2023/02/15 14:17:49;;;;;;;31.83;17.40;;;17.50;62.10;;;;;;10565459;27;20043;-25
2023/02/15 14:23:02;;;;;;;18.25;10.13;;;16.90;70.40;;;;;;10574528;27;20166;-28
2023/02/15 14:28:10;;;;;;;33.28;18.20;;;18.30;64.70;;;;;;10575824;27;20701;-27
2023/02/15 14:33:33;;;;;;;14.82;8.52;;;17.30;65.00;;;;;;10580699;27;20690;-28
2023/02/15 14:38:41;;;;;;;;;;;18.80;64.10;;;;;;10579123;27;20122;-29
2023/02/15 14:43:53;;;;;;;34.20;19.33;;;18.80;62.30;;;;;;10571448;27;20313;-26
2023/02/15 14:48:57;;;;;;;25.02;8.63;;;19.30;59.50;;;;;;10575281;27;20476;-30
2023/02/15 14:53:58;;;;;;;11.45;7.47;;;19.00;64.40;;;;;;10569598;27;20096;-26
2023/02/15 14:59:16;;;;;;;11.25;7.22;;;19.10;62.70;;;;;;10577771;27;20120;-25
2023/02/15 15:04:26;;;;;;;13.95;6.78;;;19.60;61.70;;;;;;10584036;27;20039;-26
2023/02/15 15:09:30;;;;;;;11.48;6.57;;;19.80;61.20;;;;;;10588059;27;20515;-26
2023/02/15 15:14:41;;;;;;;12.10;7.18;;;19.60;61.90;;;;;;10579192;28;20051;-25
2023/02/15 15:20:07;;;;;;;16.60;10.30;;;19.80;61.40;;;;;;10578487;28;20075;-26
2023/02/15 15:25:12;;;;;;;10.85;6.03;;;19.80;60.90;;;;;;10577304;28;20048;-25
2023/02/15 15:30:50;;;;;;;8.13;5.53;;;20.10;60.50;;;;;;10572561;28;20756;-25
2023/02/15 15:36:12;;;;;;;9.15;5.68;;;20.00;60.50;;;;;;10566085;27;20048;-28
2023/02/15 15:41:24;;;;;;;8.48;5.38;;;20.10;60.40;;;;;;10581888;27;20359;-27
2023/02/15 15:47:11;;;;;;;9.98;5.40;;;20.10;60.50;;;;;;10581739;27;20458;-27
2023/02/15 15:52:16;;;;;;;7.68;5.18;;;20.20;60.40;;;;;;10550097;27;20129;-25
2023/02/15 15:57:26;;;;;;;8.20;5.45;;;20.20;60.50;;;;;;10586056;27;20039;-28
2023/02/15 16:02:28;;;;;;;8.85;5.60;;;20.20;61.00;;;;;;10586040;27;20127;-26
2023/02/15 16:07:32;;;;;;;8.45;5.13;;;20.20;60.40;;;;;;10582854;27;20075;-25
2023/02/15 16:12:36;;;;;;;6.97;4.90;;;20.30;60.60;;;;;;10589266;27;20061;-26
2023/02/15 16:17:41;;;;;;;6.93;5.05;;;20.30;60.60;;;;;;10582084;27;20078;-27
2023/02/15 16:22:46;;;;;;;7.60;5.05;;;20.30;60.40;;;;;;10578487;27;20051;-32
2023/02/15 16:27:49;;;;;;;7.75;5.30;;;20.40;60.40;;;;;;10571270;27;20056;-26
2023/02/15 16:32:54;;;;;;;10.57;4.80;;;20.40;60.50;;;;;;10555992;27;21757;-26
2023/02/15 16:37:57;;;;;;;8.30;5.00;;;20.50;60.60;;;;;;10561107;27;20161;-27
2023/02/15 16:43:04;;;;;;;12.18;5.07;;;20.60;59.80;;;;;;10561406;27;20120;-25
2023/02/15 16:48:12;;;;;;;7.22;4.70;;;20.60;59.30;;;;;;10556488;27;20077;-22
2023/02/15 16:53:21;;;;;;;8.40;4.90;;;20.40;59.40;;;;;;10555578;27;20043;-28
2023/02/15 16:58:29;;;;;;;6.85;5.13;;;20.50;59.10;;;;;;10561286;28;20059;-30
2023/02/15 17:03:31;;;;;;;7.82;4.88;;;20.50;58.90;;;;;;10577356;27;20079;-26
2023/02/15 17:08:36;;;;;;;6.40;5.10;;;20.50;58.70;;;;;;10582125;27;20082;-29
2023/02/15 17:13:39;;;;;;;11.73;7.55;;;20.30;59.00;;;;;;10566336;27;20056;-29
2023/02/15 17:18:45;;;;;;;7.32;5.78;;;20.20;59.50;;;;;;10579340;27;20717;-28
2023/02/15 17:23:50;;;;;;;9.13;5.32;;;20.40;59.20;;;;;;10583779;27;20039;-27
2023/02/15 17:28:56;;;;;;;11.70;5.18;;;20.40;58.80;;;;;;10580306;27;20181;-26
2023/02/15 17:33:58;;;;;;;9.70;7.22;;;20.40;58.80;;;;;;10585280;27;20052;-27
2023/02/15 17:39:03;;;;;;;;;;;20.30;59.30;;;;;;10594843;27;20078;-27
2023/02/15 17:44:08;;;;;;;9.25;5.53;;;20.30;59.80;;;;;;10593540;27;20009;-25
2023/02/15 17:49:23;;;;;;;10.45;5.35;;;20.20;60.00;;;;;;10588583;27;20040;-28
2023/02/15 18:15:49;;;;;;;24.13;12.27;;;20.30;60.70;;;;;;10591117;27;20445;-28
2023/02/15 18:20:50;;;;;;;38.08;22.15;;;18.90;62.80;;;;;;10596069;27;20559;-27
2023/02/15 18:25:54;;;;;;;23.65;14.00;;;17.10;73.20;;;;;;10577486;27;20127;-28
2023/02/15 18:30:56;;;;;;;22.77;13.93;;;18.20;70.80;;;;;;10577209;27;20055;-31
2023/02/15 18:35:58;;;;;;;22.25;12.57;;;16.30;81.30;;;;;;10572336;27;20083;-29
2023/02/15 18:41:03;;;;;;;37.25;18.27;;;16.00;81.80;;;;;;10576456;27;20043;-32
2023/02/15 18:46:05;;;;;;;31.17;17.73;;;14.10;79.60;;;;;;10571280;27;20481;-34
2023/02/15 18:51:16;;;;;;;37.03;21.03;;;15.00;90.30;;;;;;10575087;27;20047;-26
2023/02/15 18:56:22;;;;;;;39.22;22.08;;;15.00;87.30;;;;;;10571935;27;20525;-28
2023/02/15 19:01:24;;;;;;;27.55;15.32;;;15.60;76.60;;;;;;10580848;27;20100;-26
2023/02/15 19:06:28;;;;;;;43.17;20.53;;;14.50;92.20;;;;;;10577862;27;20154;-27
2023/02/15 19:11:32;;;;;;;40.25;18.33;;;15.20;78.70;;;;;;10573290;27;20083;-30
2023/02/15 19:16:36;;;;;;;23.92;12.27;;;15.70;78.10;;;;;;10577461;28;20440;-25
2023/02/15 19:21:38;;;;;;;40.92;23.08;;;15.10;90.90;;;;;;10594841;27;20441;-27
2023/02/15 19:26:42;;;;;;;48.80;25.47;;;13.30;85.60;;;;;;10588452;28;20088;-27
2023/02/15 19:31:44;;;;;;;25.70;13.43;;;14.50;90.20;;;;;;10591939;27;20043;-31
2023/02/15 19:36:49;;;;;;;38.15;20.98;;;13.60;97.80;;;;;;10593443;28;20108;-32
2023/02/15 19:41:52;;;;;;;41.85;22.92;;;13.90;93.50;;;;;;10594409;28;20057;-30
2023/02/15 19:46:54;;;;;;;23.60;13.00;;;14.90;92.50;;;;;;10580542;28;20143;-26
2023/02/15 19:51:56;;;;;;;26.23;13.77;;;15.00;94.10;;;;;;10582453;28;20066;-27
2023/02/15 19:57:00;;;;;;;29.58;14.95;;;16.60;74.90;;;;;;10586474;28;20051;-27
2023/02/15 20:02:02;;;;;;;49.47;23.38;;;15.60;92.00;;;;;;10584173;27;20100;-29
2023/02/15 20:07:09;;;;;;;32.40;19.30;;;16.40;68.00;;;;;;10583059;28;20095;-27
2023/02/15 20:12:20;;;;;;;36.08;18.38;;;16.90;81.50;;;;;;10580835;28;21013;-30
2023/02/15 20:17:22;;;;;;;17.95;9.32;;;16.90;79.00;;;;;;10580189;28;20048;-29
2023/02/15 20:22:27;;;;;;;23.17;13.25;;;16.30;89.40;;;;;;10579913;27;20124;-25
2023/02/15 20:27:32;;;;;;;39.15;17.63;;;15.60;90.00;;;;;;10573490;27;20069;-28
2023/02/15 20:32:34;;;;;;;18.88;10.98;;;15.90;91.00;;;;;;10579841;27;20091;-27
2023/02/15 20:37:36;;;;;;;51.85;29.00;;;15.70;87.50;;;;;;10584108;27;20205;-29
2023/02/15 20:42:39;;;;;;;42.22;21.80;;;13.60;83.70;;;;;;10576686;27;20158;-27
2023/02/15 20:47:43;;;;;;;30.83;17.27;;;16.20;87.80;;;;;;10571773;27;20599;-26
2023/02/15 20:52:45;;;;;;;17.92;10.23;;;15.40;91.20;;;;;;10575447;27;20073;-28
2023/02/15 20:57:48;;;;;;;31.40;14.65;;;16.70;86.80;;;;;;10573324;27;20061;-27
2023/02/15 21:02:52;;;;;;;16.77;9.38;;;15.20;91.60;;;;;;10577884;27;20559;-27
2023/02/15 21:07:54;;;;;;;36.13;20.45;;;17.60;75.50;;;;;;10575179;27;20569;-26
2023/02/15 21:12:59;;;;;;;;;;;18.10;61.40;;;;;;10579336;27;20048;-27
2023/02/15 21:18:03;;;;;;;27.73;15.63;;;17.70;76.10;;;;;;10561332;27;19935;-28
2023/02/15 21:23:06;;;;;;;26.88;15.68;;;17.10;69.10;;;;;;10556497;28;20138;-25
2023/02/15 21:28:18;;;;;;;17.08;7.72;;;17.10;77.70;;;;;;10559947;27;20069;-28
2023/02/15 21:33:20;;;;;;;26.27;14.90;;;18.10;70.80;;;;;;10577339;27;20654;-29
2023/02/15 21:38:25;;;;;;;15.63;8.50;;;18.20;67.50;;;;;;10571932;27;20050;-31
2023/02/15 21:48:47;;;;;;;11.52;6.78;;;19.10;62.40;;;;;;10577725;27;20047;-29
2023/02/15 21:53:49;;;;;;;18.58;8.00;;;19.40;63.50;;;;;;10573531;27;20047;-32
2023/02/15 21:58:52;;;;;;;13.13;6.68;;;19.40;63.40;;;;;;10575143;27;20208;-31
2023/02/15 22:03:57;;;;;;;16.83;7.10;;;19.60;61.60;;;;;;10570746;27;20169;-32
2023/02/15 22:08:59;;;;;;;13.02;7.45;;;19.90;60.50;;;;;;10572733;27;20460;-27
2023/02/15 22:14:03;;;;;;;11.43;6.68;;;19.20;61.50;;;;;;10574791;27;20489;-27
2023/02/15 22:19:05;;;;;;;13.15;7.13;;;19.80;60.50;;;;;;10591128;27;20424;-30
2023/02/15 22:24:07;;;;;;;29.48;17.92;;;19.80;60.10;;;;;;10594394;27;20070;-28
2023/02/15 22:29:15;;;;;;;14.18;6.93;;;19.10;60.90;;;;;;10597502;27;20134;-27
2023/02/15 22:34:25;;;;;;;11.25;7.35;;;19.50;61.50;;;;;;10590078;27;20059;-28
2023/02/15 22:39:27;;;;;;;11.13;7.22;;;19.00;62.80;;;;;;10594223;27;20140;-27
2023/02/15 22:44:34;;;;;;;10.27;6.63;;;19.60;60.60;;;;;;10577320;27;20567;-34
2023/02/15 22:49:36;;;;;;;11.43;7.07;;;19.40;60.70;;;;;;10587116;27;20762;-31
2023/02/15 22:54:38;;;;;;;9.70;6.03;;;19.60;60.00;;;;;;10588178;27;20083;-26
2023/02/15 22:59:41;;;;;;;15.57;7.45;;;19.80;59.60;;;;;;10583686;27;20141;-26
2023/02/15 23:04:43;;;;;;;23.95;13.80;;;19.60;59.80;;;;;;10572975;27;20116;-28
2023/02/15 23:09:45;;;;;;;15.02;7.68;;;19.20;60.40;;;;;;10579549;27;20051;-27
2023/02/15 23:14:48;;;;;;;28.58;18.02;;;19.00;61.40;;;;;;10572965;27;20127;-29
2023/02/15 23:19:50;;;;;;;14.45;7.95;;;18.50;60.00;;;;;;10582965;28;20051;-25
2023/02/15 23:24:53;;;;;;;19.05;8.00;;;19.00;62.00;;;;;;10577402;28;20059;-28
2023/02/15 23:29:56;;;;;;;;;;;19.30;60.50;;;;;;10576954;27;20490;-27
2023/02/15 23:34:58;;;;;;;15.75;8.75;;;19.40;59.60;;;;;;10577318;28;20030;-29
2023/02/15 23:45:24;;;;;;;12.63;7.40;;;19.30;58.80;;;;;;10561427;28;20205;-28
2023/02/15 23:50:29;;;;;;;14.75;8.88;;;19.30;59.80;;;;;;10570943;28;20512;-28
2023/02/15 23:55:35;;;;;;;20.35;11.93;;;18.70;61.60;;;;;;10579083;27;20051;-26
